Time;durP1;ratioP1;P1;durP2;ratioP2;P2;SDS_P1;SDS_P2;PMS_P1;PMS_P2;Temp;Humidity;BMP_temperature;BMP_pressure;BME280_temperature;BME280_humidity;BME280_pressure;Samples;Min_cycle;Max_cycle;Signal;HPM_P1;HPM_P2
2022/08/22 00:01:14;;;;;;;11.20;5.35;;;;;;;;;;5072945;28;20293;-71
2022/08/22 00:03:47;;;;;;;11.82;5.47;;;;;;;;;;5085071;28;20184;-70
2022/08/22 00:06:16;;;;;;;13.98;5.68;;;;;;;;;;5078472;28;20155;-70
2022/08/22 00:09:01;;;;;;;11.35;4.70;;;;;;;;;;5078842;28;20052;-70
2022/08/22 00:11:35;;;;;;;11.38;5.50;;;;;;;;;;5064188;28;20055;-70
2022/08/22 00:14:17;;;;;;;14.85;5.95;;;;;;;;;;5085965;28;20056;-71
2022/08/22 00:16:48;;;;;;;18.58;6.78;;;;;;;;;;5064756;28;20040;-70
2022/08/22 00:19:30;;;;;;;11.20;6.32;;;;;;;;;;5072700;28;20440;-70
2022/08/22 00:22:01;;;;;;;12.02;6.72;;;;;;;;;;5074176;28;20491;-70
2022/08/22 00:24:32;;;;;;;9.38;5.97;;;;;;;;;;5097443;27;20050;-70
2022/08/22 00:27:01;;;;;;;13.38;6.50;;;;;;;;;;5074243;28;20055;-70
2022/08/22 00:29:32;;;;;;;8.57;5.75;;;;;;;;;;5081969;28;20040;-71
2022/08/22 00:32:06;;;;;;;9.30;5.93;;;;;;;;;;5076219;28;20036;-70
2022/08/22 00:34:36;;;;;;;8.13;5.55;;;;;;;;;;5082086;28;20078;-70
2022/08/22 00:37:08;;;;;;;13.80;6.82;;;;;;;;;;5083148;28;20141;-70
2022/08/22 00:39:39;;;;;;;9.02;5.43;;;;;;;;;;5084984;28;20052;-71
2022/08/22 00:42:08;;;;;;;12.30;5.95;;;;;;;;;;5073257;28;20040;-71
2022/08/22 00:44:53;;;;;;;11.88;6.40;;;;;;;;;;5083634;28;20036;-70
2022/08/22 00:47:40;;;;;;;13.85;6.85;;;;;;;;;;5074542;28;20048;-70
2022/08/22 00:50:06;;;;;;;10.55;6.57;;;;;;;;;;5083075;28;20032;-70
2022/08/22 00:52:36;;;;;;;12.80;6.95;;;;;;;;;;5078731;28;20041;-70
2022/08/22 00:55:10;;;;;;;16.35;7.53;;;;;;;;;;5085991;27;20063;-70
2022/08/22 00:57:46;;;;;;;13.32;7.05;;;;;;;;;;5073723;28;20054;-70
2022/08/22 01:00:14;;;;;;;12.73;7.30;;;;;;;;;;5069604;28;20048;-70
2022/08/22 01:02:42;;;;;;;10.48;6.20;;;;;;;;;;5091926;27;20040;-70
2022/08/22 01:05:15;;;;;;;10.07;6.88;;;;;;;;;;5083464;28;20036;-70
2022/08/22 01:07:43;;;;;;;14.25;7.10;;;;;;;;;;5079845;28;20036;-70
2022/08/22 01:10:15;;;;;;;13.90;7.85;;;;;;;;;;5081129;28;20517;-70
2022/08/22 01:12:56;;;;;;;11.98;7.07;;;;;;;;;;5079961;28;20075;-70
2022/08/22 01:15:25;;;;;;;12.55;6.53;;;;;;;;;;5081136;28;20148;-70
2022/08/22 01:18:00;;;;;;;11.63;6.30;;;;;;;;;;5075995;28;20052;-70
2022/08/22 01:20:33;;;;;;;12.60;7.30;;;;;;;;;;5075792;28;20398;-71
2022/08/22 01:23:17;;;;;;;15.52;8.05;;;;;;;;;;5077145;28;20052;-70
2022/08/22 01:26:00;;;;;;;11.60;6.80;;;;;;;;;;5079104;28;20064;-70
2022/08/22 01:28:40;;;;;;;12.40;6.88;;;;;;;;;;5080310;28;20048;-70
2022/08/22 01:31:25;;;;;;;13.68;7.90;;;;;;;;;;5079487;28;20052;-70
2022/08/22 01:33:59;;;;;;;8.30;6.15;;;;;;;;;;5101707;27;20067;-70
2022/08/22 01:36:44;;;;;;;9.82;6.22;;;;;;;;;;5076421;28;20056;-70
2022/08/22 01:39:16;;;;;;;11.48;6.18;;;;;;;;;;5078502;28;20054;-70
2022/08/22 01:41:46;;;;;;;13.40;6.35;;;;;;;;;;5075994;28;20046;-70
2022/08/22 01:44:19;;;;;;;11.23;6.30;;;;;;;;;;5071796;28;20076;-70
2022/08/22 01:46:57;;;;;;;10.18;6.25;;;;;;;;;;5077065;28;21267;-70
2022/08/22 01:49:36;;;;;;;8.55;5.07;;;;;;;;;;5073775;28;20123;-70
2022/08/22 01:52:07;;;;;;;12.93;5.50;;;;;;;;;;5072442;28;20437;-70
2022/08/22 01:54:37;;;;;;;6.10;3.75;;;;;;;;;;5069894;28;20052;-70
2022/08/22 01:57:06;;;;;;;8.60;3.80;;;;;;;;;;5079794;28;20051;-70
2022/08/22 01:59:38;;;;;;;3.30;2.20;;;;;;;;;;5073045;28;20049;-70
2022/08/22 02:02:20;;;;;;;4.30;1.88;;;;;;;;;;5080771;28;20487;-70
2022/08/22 02:05:04;;;;;;;5.93;2.15;;;;;;;;;;5100509;27;20070;-69
2022/08/22 02:07:39;;;;;;;3.72;1.70;;;;;;;;;;5074591;28;20480;-70
2022/08/22 02:10:07;;;;;;;6.28;2.90;;;;;;;;;;5072168;28;20513;-70
2022/08/22 02:12:40;;;;;;;4.68;3.20;;;;;;;;;;5076588;28;20040;-70
2022/08/22 02:15:14;;;;;;;5.93;3.92;;;;;;;;;;5078543;28;20084;-70
2022/08/22 02:18:04;;;;;;;6.72;4.43;;;;;;;;;;5074325;28;20119;-69
2022/08/22 02:20:34;;;;;;;7.28;4.00;;;;;;;;;;5093478;27;20434;-69
2022/08/22 02:23:21;;;;;;;7.40;4.00;;;;;;;;;;5079234;28;20040;-70
2022/08/22 02:25:52;;;;;;;8.48;3.67;;;;;;;;;;5092438;27;20055;-70
2022/08/22 02:28:31;;;;;;;10.32;4.22;;;;;;;;;;5075668;28;20040;-70
2022/08/22 02:31:03;;;;;;;8.32;4.82;;;;;;;;;;5076774;28;20032;-70
2022/08/22 02:33:50;;;;;;;8.70;4.22;;;;;;;;;;5073648;28;20040;-70
2022/08/22 02:36:19;;;;;;;9.38;4.60;;;;;;;;;;5076021;28;21009;-70
2022/08/22 02:38:54;;;;;;;11.13;5.18;;;;;;;;;;5068862;28;20136;-70
2022/08/22 02:41:28;;;;;;;8.25;4.28;;;;;;;;;;5073498;28;20109;-70
2022/08/22 02:44:02;;;;;;;9.02;3.80;;;;;;;;;;5067966;28;20607;-69
2022/08/22 02:46:28;;;;;;;;;;;;;;;;;;5068821;28;20043;-70
2022/08/22 02:48:55;;;;;;;6.65;3.67;;;;;;;;;;5069259;28;20488;-70
2022/08/22 02:51:40;;;;;;;8.00;4.10;;;;;;;;;;5069643;28;20435;-69
2022/08/22 02:54:07;;;;;;;8.15;3.97;;;;;;;;;;5088878;27;20500;-70
2022/08/22 02:56:39;;;;;;;10.43;4.18;;;;;;;;;;5065680;28;21616;-70
2022/08/22 02:59:14;;;;;;;7.07;3.92;;;;;;;;;;5087881;27;20045;-70
2022/08/22 03:01:42;;;;;;;9.35;4.53;;;;;;;;;;5074645;28;20071;-69
2022/08/22 03:04:27;;;;;;;9.40;3.63;;;;;;;;;;5069187;28;20043;-70
2022/08/22 03:06:57;;;;;;;7.80;3.70;;;;;;;;;;5069690;28;20059;-70
2022/08/22 03:09:27;;;;;;;9.80;3.65;;;;;;;;;;5075997;28;20070;-70
2022/08/22 03:12:07;;;;;;;7.80;4.03;;;;;;;;;;5074909;28;20490;-70
2022/08/22 03:14:41;;;;;;;10.57;3.90;;;;;;;;;;5069878;28;20063;-70
2022/08/22 03:17:12;;;;;;;10.18;4.00;;;;;;;;;;5072466;28;20105;-70
2022/08/22 03:19:42;;;;;;;10.18;3.95;;;;;;;;;;5074685;28;20123;-70
2022/08/22 03:22:13;;;;;;;8.77;4.55;;;;;;;;;;5078389;28;20120;-70
2022/08/22 03:24:44;;;;;;;9.68;5.50;;;;;;;;;;5076958;28;20054;-70
2022/08/22 03:27:16;;;;;;;9.18;5.50;;;;;;;;;;5074975;28;20055;-69
2022/08/22 03:29:45;;;;;;;9.07;5.60;;;;;;;;;;5077932;28;20088;-70
2022/08/22 03:32:14;;;;;;;9.85;5.22;;;;;;;;;;5067226;28;20708;-70
2022/08/22 03:34:55;;;;;;;11.43;6.10;;;;;;;;;;5060349;28;20505;-70
2022/08/22 03:37:31;;;;;;;23.35;6.55;;;;;;;;;;5092759;28;20498;-69
2022/08/22 03:40:06;;;;;;;13.63;6.32;;;;;;;;;;5075208;28;20411;-70
2022/08/22 03:42:46;;;;;;;9.95;5.53;;;;;;;;;;5074345;28;20056;-70
2022/08/22 03:45:19;;;;;;;8.50;5.35;;;;;;;;;;5070531;28;20056;-70
2022/08/22 03:47:47;;;;;;;11.27;5.13;;;;;;;;;;5075484;28;20040;-69
2022/08/22 03:50:13;;;;;;;9.23;4.97;;;;;;;;;;5080627;28;20040;-69
2022/08/22 03:53:07;;;;;;;10.32;6.07;;;;;;;;;;5094510;28;20040;-70
2022/08/22 03:55:47;;;;;;;11.07;6.38;;;;;;;;;;5078314;28;20039;-69
2022/08/22 03:58:33;;;;;;;12.82;7.43;;;;;;;;;;5074348;28;20494;-70
2022/08/22 04:01:18;;;;;;;11.80;6.15;;;;;;;;;;5085020;27;20124;-69
2022/08/22 04:03:51;;;;;;;10.75;5.95;;;;;;;;;;5076452;28;20051;-70
2022/08/22 04:06:24;;;;;;;8.20;3.60;;;;;;;;;;5079635;28;20044;-70
2022/08/22 04:08:50;;;;;;;8.23;3.65;;;;;;;;;;5053110;28;20044;-70
2022/08/22 04:11:16;;;;;;;7.50;4.57;;;;;;;;;;5076005;28;20040;-70
2022/08/22 04:14:12;;;;;;;9.80;5.55;;;;;;;;;;5079066;28;20051;-70
2022/08/22 04:16:50;;;;;;;7.45;3.10;;;;;;;;;;5078935;28;20068;-69
2022/08/22 04:19:16;;;;;;;6.55;2.88;;;;;;;;;;5079692;28;20054;-70
2022/08/22 04:21:57;;;;;;;8.82;3.90;;;;;;;;;;5091168;28;20140;-70
2022/08/22 04:24:31;;;;;;;8.15;4.22;;;;;;;;;;5075083;28;20062;-69
2022/08/22 04:27:01;;;;;;;11.43;4.90;;;;;;;;;;5075314;28;20056;-70
2022/08/22 04:29:37;;;;;;;7.90;4.25;;;;;;;;;;5071980;28;20123;-69
2022/08/22 04:32:07;;;;;;;9.93;5.13;;;;;;;;;;5079817;28;20047;-70
2022/08/22 04:34:38;;;;;;;7.20;4.47;;;;;;;;;;5074474;28;20052;-70
2022/08/22 04:37:09;;;;;;;9.10;4.35;;;;;;;;;;5074707;28;20086;-70
2022/08/22 04:39:38;;;;;;;8.18;5.10;;;;;;;;;;5074855;28;20032;-70
2022/08/22 04:42:10;;;;;;;7.38;3.83;;;;;;;;;;5079731;28;20441;-69
2022/08/22 04:44:52;;;;;;;7.65;3.63;;;;;;;;;;5079422;28;20044;-73
2022/08/22 04:47:28;;;;;;;9.68;4.60;;;;;;;;;;5072188;28;20098;-70
2022/08/22 04:50:02;;;;;;;9.20;4.47;;;;;;;;;;5068206;28;20521;-70
2022/08/22 04:52:43;;;;;;;8.95;4.85;;;;;;;;;;5075799;28;20135;-70
2022/08/22 04:55:28;;;;;;;10.93;5.82;;;;;;;;;;5080292;28;20052;-69
2022/08/22 04:58:15;;;;;;;8.68;5.43;;;;;;;;;;5083049;28;20100;-70
2022/08/22 05:00:54;;;;;;;6.30;4.95;;;;;;;;;;5080573;28;20106;-70
2022/08/22 05:03:22;;;;;;;7.28;5.18;;;;;;;;;;5078614;28;20044;-70
2022/08/22 05:05:49;;;;;;;8.10;4.22;;;;;;;;;;5070031;28;20068;-70
2022/08/22 05:08:19;;;;;;;9.10;3.50;;;;;;;;;;5077038;28;20051;-70
2022/08/22 05:10:46;;;;;;;8.15;4.03;;;;;;;;;;5057937;28;20040;-70
2022/08/22 05:13:17;;;;;;;8.07;4.43;;;;;;;;;;5078087;28;20994;-70
2022/08/22 05:15:47;;;;;;;9.05;4.47;;;;;;;;;;5079748;28;20040;-70
2022/08/22 05:18:19;;;;;;;7.00;3.60;;;;;;;;;;5074723;28;20040;-70
2022/08/22 05:20:47;;;;;;;9.18;4.28;;;;;;;;;;5077255;28;20075;-70
2022/08/22 05:23:16;;;;;;;5.38;3.50;;;;;;;;;;5087451;27;20181;-70
2022/08/22 05:25:44;;;;;;;7.40;3.50;;;;;;;;;;5063229;28;20040;-71
2022/08/22 05:28:17;;;;;;;6.57;4.18;;;;;;;;;;5077307;28;20051;-70
2022/08/22 05:30:46;;;;;;;5.60;3.28;;;;;;;;;;5095026;27;20051;-70
2022/08/22 05:33:19;;;;;;;7.75;3.80;;;;;;;;;;5069999;28;20044;-70
2022/08/22 05:35:48;;;;;;;6.70;2.92;;;;;;;;;;5077908;28;20032;-70
2022/08/22 05:38:18;;;;;;;5.07;2.80;;;;;;;;;;5073774;28;20509;-70
2022/08/22 05:40:47;;;;;;;13.25;4.60;;;;;;;;;;5078143;28;20095;-70
2022/08/22 05:43:13;;;;;;;9.18;4.00;;;;;;;;;;5074634;28;20400;-70
2022/08/22 05:45:44;;;;;;;6.75;3.13;;;;;;;;;;5071461;28;20041;-70
2022/08/22 05:48:15;;;;;;;7.03;3.50;;;;;;;;;;5096886;27;20324;-70
2022/08/22 05:50:44;;;;;;;8.75;4.68;;;;;;;;;;5085378;28;20141;-70
2022/08/22 05:53:13;;;;;;;6.00;3.63;;;;;;;;;;5091300;27;20067;-70
2022/08/22 05:55:40;;;;;;;11.90;4.68;;;;;;;;;;5071115;28;20491;-70
2022/08/22 05:58:12;;;;;;;9.57;4.65;;;;;;;;;;5083853;28;20692;-71
2022/08/22 06:00:41;;;;;;;7.13;4.43;;;;;;;;;;5078372;28;20102;-71
2022/08/22 06:03:07;;;;;;;13.18;5.00;;;;;;;;;;5071640;28;20036;-71
2022/08/22 06:05:37;;;;;;;11.20;5.20;;;;;;;;;;5077181;28;20147;-70
2022/08/22 06:08:07;;;;;;;13.57;5.80;;;;;;;;;;5076838;28;20172;-70
2022/08/22 06:10:41;;;;;;;12.45;6.15;;;;;;;;;;5060293;28;20047;-71
2022/08/22 06:13:08;;;;;;;14.98;5.38;;;;;;;;;;5077347;28;20532;-82
2022/08/22 06:15:40;;;;;;;9.98;5.35;;;;;;;;;;5094513;28;20320;-70
2022/08/22 06:18:09;;;;;;;10.40;5.70;;;;;;;;;;5095295;28;20051;-68
2022/08/22 06:20:39;;;;;;;10.65;5.53;;;;;;;;;;5084236;28;20048;-68
2022/08/22 06:23:07;;;;;;;13.63;6.00;;;;;;;;;;5097360;28;20047;-69
2022/08/22 06:25:36;;;;;;;12.48;5.65;;;;;;;;;;5095623;28;20442;-69
2022/08/22 06:28:06;;;;;;;12.40;5.72;;;;;;;;;;5106549;28;20154;-70
2022/08/22 06:30:33;;;;;;;12.52;5.35;;;;;;;;;;5108451;28;20117;-69
2022/08/22 06:33:02;;;;;;;17.67;7.05;;;;;;;;;;5102942;28;20146;-68
2022/08/22 06:38:32;;;;;;;9.85;5.28;;;;;;;;;;5101248;28;20044;-69
2022/08/22 06:41:00;;;;;;;10.80;6.13;;;;;;;;;;5099097;28;20391;-68
2022/08/22 06:43:26;;;;;;;15.60;6.47;;;;;;;;;;5082043;28;20161;-69
2022/08/22 06:45:53;;;;;;;11.32;6.18;;;;;;;;;;5088198;28;20046;-69
2022/08/22 06:48:20;;;;;;;9.52;6.28;;;;;;;;;;5079076;28;20040;-69
2022/08/22 06:50:50;;;;;;;11.52;7.25;;;;;;;;;;5086338;28;20051;-69
2022/08/22 06:53:17;;;;;;;10.60;6.25;;;;;;;;;;5089269;28;20046;-69
2022/08/22 06:55:47;;;;;;;17.83;7.55;;;;;;;;;;5089384;28;20066;-69
2022/08/22 06:58:16;;;;;;;14.73;7.10;;;;;;;;;;5080097;28;20557;-68
2022/08/22 07:00:43;;;;;;;14.77;7.93;;;;;;;;;;5077865;28;20148;-68
2022/08/22 07:03:14;;;;;;;14.68;7.30;;;;;;;;;;5063689;28;20052;-66
2022/08/22 07:05:41;;;;;;;13.90;6.35;;;;;;;;;;5075368;28;20546;-66
2022/08/22 07:08:12;;;;;;;13.40;6.63;;;;;;;;;;5078170;28;20044;-66
2022/08/22 07:10:40;;;;;;;18.10;7.82;;;;;;;;;;5083942;28;20545;-66
2022/08/22 07:13:12;;;;;;;22.35;8.40;;;;;;;;;;5084557;28;20079;-65
2022/08/22 07:15:41;;;;;;;17.52;7.63;;;;;;;;;;5084370;28;20055;-65
2022/08/22 07:18:14;;;;;;;21.15;8.68;;;;;;;;;;5074845;28;20432;-65
2022/08/22 07:20:43;;;;;;;;;;;;;;;;;;5095690;28;20065;-66
2022/08/22 07:23:12;;;;;;;17.33;8.38;;;;;;;;;;5083955;28;19934;-66
2022/08/22 07:25:49;;;;;;;14.55;7.82;;;;;;;;;;5095164;28;20483;-66
2022/08/22 07:28:18;;;;;;;17.00;8.10;;;;;;;;;;5088778;28;20072;-67
2022/08/22 07:30:52;;;;;;;17.77;8.38;;;;;;;;;;5073874;28;20044;-65
2022/08/22 07:33:25;;;;;;;17.95;7.43;;;;;;;;;;5079438;28;20495;-66
2022/08/22 07:35:58;;;;;;;18.57;6.90;;;;;;;;;;5086977;28;20053;-66
2022/08/22 07:38:33;;;;;;;23.73;6.97;;;;;;;;;;5072825;28;20058;-66
2022/08/22 07:41:02;;;;;;;16.98;6.53;;;;;;;;;;5076050;28;20055;-65
2022/08/22 07:43:38;;;;;;;22.85;6.60;;;;;;;;;;5075689;28;20383;-66
2022/08/22 07:46:17;;;;;;;16.20;6.97;;;;;;;;;;5080670;28;20048;-66
2022/08/22 07:48:48;;;;;;;15.10;5.90;;;;;;;;;;5085017;28;20067;-66
2022/08/22 07:51:17;;;;;;;22.00;5.68;;;;;;;;;;5080909;28;20048;-66
2022/08/22 07:53:45;;;;;;;21.42;6.38;;;;;;;;;;5091631;28;20106;-67
2022/08/22 07:56:15;;;;;;;15.77;5.30;;;;;;;;;;5072173;28;20040;-66
2022/08/22 07:58:43;;;;;;;12.98;4.50;;;;;;;;;;5081090;28;20040;-66
2022/08/22 08:01:10;;;;;;;13.95;4.82;;;;;;;;;;5083089;28;20086;-66
2022/08/22 08:03:37;;;;;;;19.80;4.63;;;;;;;;;;5090607;28;20173;-66
2022/08/22 08:06:03;;;;;;;15.18;5.07;;;;;;;;;;5083290;28;20044;-66
2022/08/22 08:08:33;;;;;;;15.90;4.90;;;;;;;;;;5088254;28;20078;-66
2022/08/22 08:10:59;;;;;;;14.45;4.50;;;;;;;;;;5086182;28;20164;-66
2022/08/22 08:13:29;;;;;;;22.73;4.93;;;;;;;;;;5089846;28;20047;-66
2022/08/22 08:15:55;;;;;;;15.10;4.35;;;;;;;;;;5089476;28;20188;-66
2022/08/22 08:18:24;;;;;;;17.27;4.72;;;;;;;;;;5083767;28;20051;-68
2022/08/22 08:20:53;;;;;;;17.48;4.03;;;;;;;;;;5087187;28;20086;-66
2022/08/22 08:23:20;;;;;;;12.52;3.88;;;;;;;;;;5086037;28;20371;-66
2022/08/22 08:25:54;;;;;;;14.05;3.97;;;;;;;;;;5101450;28;20043;-67
2022/08/22 08:28:33;;;;;;;17.58;3.85;;;;;;;;;;5101648;28;20071;-66
2022/08/22 08:31:09;;;;;;;10.75;3.90;;;;;;;;;;5105248;28;20054;-66
2022/08/22 08:33:37;;;;;;;13.57;3.60;;;;;;;;;;5104138;28;20049;-67
2022/08/22 08:36:08;;;;;;;14.00;4.00;;;;;;;;;;5101820;28;20039;-67
2022/08/22 08:38:40;;;;;;;13.70;4.10;;;;;;;;;;5101062;28;20114;-66
2022/08/22 08:41:23;;;;;;;13.70;4.00;;;;;;;;;;5095445;28;20108;-67
2022/08/22 08:43:50;;;;;;;13.88;4.32;;;;;;;;;;5102025;28;20040;-67
2022/08/22 08:46:16;;;;;;;14.48;4.65;;;;;;;;;;5108604;28;20073;-66
2022/08/22 08:48:53;;;;;;;14.45;3.97;;;;;;;;;;5097923;28;20188;-67
2022/08/22 08:51:30;;;;;;;18.85;3.97;;;;;;;;;;5115834;27;20071;-67
2022/08/22 08:54:08;;;;;;;15.90;3.80;;;;;;;;;;5096496;28;20093;-67
2022/08/22 08:56:37;;;;;;;18.25;3.75;;;;;;;;;;5095159;28;20335;-69
2022/08/22 08:59:16;;;;;;;11.32;3.58;;;;;;;;;;5098047;28;20094;-68
2022/08/22 09:02:00;;;;;;;12.90;3.92;;;;;;;;;;5085259;28;20141;-68
2022/08/22 09:04:27;;;;;;;12.10;3.70;;;;;;;;;;5084202;28;20074;-68
2022/08/22 09:07:02;;;;;;;14.65;3.25;;;;;;;;;;5086162;28;20047;-69
2022/08/22 09:09:29;;;;;;;13.35;3.55;;;;;;;;;;5095141;28;20532;-69
2022/08/22 09:11:56;;;;;;;15.35;3.55;;;;;;;;;;5098559;28;21249;-68
2022/08/22 09:14:41;;;;;;;15.40;3.22;;;;;;;;;;5097423;28;20055;-68
2022/08/22 09:17:19;;;;;;;12.48;4.05;;;;;;;;;;5097729;28;20557;-68
2022/08/22 09:19:46;;;;;;;11.32;3.38;;;;;;;;;;5099137;28;20505;-68
2022/08/22 09:22:12;;;;;;;12.25;2.80;;;;;;;;;;5096636;28;20043;-68
2022/08/22 09:24:48;;;;;;;10.57;2.58;;;;;;;;;;5100691;28;20060;-68
2022/08/22 09:27:17;;;;;;;10.55;2.90;;;;;;;;;;5101347;28;20055;-68
2022/08/22 09:29:48;;;;;;;12.10;3.45;;;;;;;;;;5098322;28;20479;-68
2022/08/22 09:32:20;;;;;;;13.65;3.42;;;;;;;;;;5093933;28;20047;-69
2022/08/22 09:34:55;;;;;;;12.18;3.58;;;;;;;;;;5098270;28;20043;-68
2022/08/22 09:37:41;;;;;;;8.25;2.40;;;;;;;;;;5090674;28;20122;-68
2022/08/22 09:40:14;;;;;;;11.65;2.88;;;;;;;;;;5077613;28;20060;-68
2022/08/22 09:42:45;;;;;;;11.80;3.05;;;;;;;;;;5083559;28;20053;-68
2022/08/22 09:45:22;;;;;;;9.18;2.75;;;;;;;;;;5097094;28;20031;-68
2022/08/22 09:48:06;;;;;;;11.15;3.40;;;;;;;;;;5097838;28;20144;-68
2022/08/22 09:50:42;;;;;;;10.40;3.35;;;;;;;;;;5095836;28;20945;-68
2022/08/22 09:53:25;;;;;;;13.77;2.60;;;;;;;;;;5092487;28;20052;-69
2022/08/22 09:55:51;;;;;;;;;;;;;;;;;;5097614;28;20047;-69
2022/08/22 09:58:24;;;;;;;9.68;2.38;;;;;;;;;;5088671;28;19927;-69
2022/08/22 10:00:57;;;;;;;10.18;2.30;;;;;;;;;;5082156;28;20420;-69
2022/08/22 10:03:23;;;;;;;;;;;;;;;;;;5096410;27;20046;-69
2022/08/22 10:05:59;;;;;;;10.50;2.42;;;;;;;;;;5093434;28;19923;-69
2022/08/22 10:08:31;;;;;;;8.38;1.92;;;;;;;;;;5095183;28;20044;-69
2022/08/22 10:11:10;;;;;;;7.13;2.05;;;;;;;;;;5096774;28;20035;-69
2022/08/22 10:13:44;;;;;;;11.10;3.00;;;;;;;;;;5096160;28;20044;-69
2022/08/22 10:16:16;;;;;;;12.18;2.60;;;;;;;;;;5095749;28;20044;-69
2022/08/22 10:18:48;;;;;;;9.23;2.10;;;;;;;;;;5090198;28;20048;-69
2022/08/22 10:21:15;;;;;;;10.20;2.40;;;;;;;;;;5090556;28;20047;-69
2022/08/22 10:23:48;;;;;;;10.18;2.17;;;;;;;;;;5074588;28;20059;-70
2022/08/22 10:26:28;;;;;;;10.35;2.47;;;;;;;;;;5074548;28;20089;-69
2022/08/22 10:28:56;;;;;;;6.70;2.50;;;;;;;;;;5089261;28;20126;-69
2022/08/22 10:31:22;;;;;;;8.25;2.22;;;;;;;;;;5100070;28;20041;-69
2022/08/22 10:33:56;;;;;;;9.02;2.20;;;;;;;;;;5098638;28;20862;-68
2022/08/22 10:36:30;;;;;;;12.30;2.60;;;;;;;;;;5092741;28;20044;-69
2022/08/22 10:38:58;;;;;;;7.32;2.03;;;;;;;;;;5101947;28;20099;-69
2022/08/22 10:41:34;;;;;;;9.48;2.58;;;;;;;;;;5079101;28;20040;-69
2022/08/22 10:44:03;;;;;;;7.25;2.10;;;;;;;;;;5098569;28;20043;-70
2022/08/22 10:46:36;;;;;;;9.60;2.63;;;;;;;;;;5098828;28;20047;-70
2022/08/22 10:49:07;;;;;;;7.45;2.13;;;;;;;;;;5099945;28;20085;-68
2022/08/22 10:51:36;;;;;;;9.57;2.30;;;;;;;;;;5098887;28;20043;-68
2022/08/22 10:54:20;;;;;;;8.20;1.90;;;;;;;;;;5096776;28;20036;-68
2022/08/22 10:56:49;;;;;;;7.57;2.20;;;;;;;;;;5098154;28;20044;-68
2022/08/22 10:59:22;;;;;;;5.60;1.67;;;;;;;;;;5098803;28;20106;-68
2022/08/22 11:01:51;;;;;;;;;;;;;;;;;;5096386;28;20059;-68
2022/08/22 11:04:18;;;;;;;7.35;1.67;;;;;;;;;;5098574;28;20300;-68
2022/08/22 11:06:46;;;;;;;9.48;2.50;;;;;;;;;;5116838;27;20056;-68
2022/08/22 11:09:16;;;;;;;10.00;2.50;;;;;;;;;;5095680;28;20051;-68
2022/08/22 11:11:45;;;;;;;10.30;2.58;;;;;;;;;;5096190;28;20497;-67
2022/08/22 11:14:11;;;;;;;11.20;2.60;;;;;;;;;;5097170;28;20513;-68
2022/08/22 11:16:40;;;;;;;13.05;2.60;;;;;;;;;;5097939;28;20075;-68
2022/08/22 11:19:15;;;;;;;9.90;2.08;;;;;;;;;;5113587;27;20063;-67
2022/08/22 11:21:53;;;;;;;8.85;2.10;;;;;;;;;;5099571;28;20062;-67
2022/08/22 11:24:25;;;;;;;5.57;2.22;;;;;;;;;;5096029;28;20032;-68
2022/08/22 11:26:58;;;;;;;7.18;2.30;;;;;;;;;;5109253;27;20035;-68
2022/08/22 11:29:32;;;;;;;7.32;1.92;;;;;;;;;;5100228;28;20036;-67
2022/08/22 11:32:04;;;;;;;7.65;2.10;;;;;;;;;;5098294;28;20090;-68
2022/08/22 11:34:38;;;;;;;9.13;2.57;;;;;;;;;;5099418;28;20567;-67
2022/08/22 11:37:08;;;;;;;8.80;2.40;;;;;;;;;;5092722;28;20435;-67
2022/08/22 11:39:39;;;;;;;8.15;2.47;;;;;;;;;;5094836;28;20047;-67
2022/08/22 11:42:13;;;;;;;12.70;2.30;;;;;;;;;;5098441;28;20458;-68
2022/08/22 11:44:40;;;;;;;9.27;2.63;;;;;;;;;;5099314;28;20031;-68
2022/08/22 11:47:08;;;;;;;9.77;2.35;;;;;;;;;;5094671;28;20480;-68
2022/08/22 11:49:38;;;;;;;11.23;2.53;;;;;;;;;;5101060;28;20055;-68
2022/08/22 11:52:13;;;;;;;8.25;2.53;;;;;;;;;;5095816;28;20075;-67
2022/08/22 11:54:55;;;;;;;10.38;2.65;;;;;;;;;;5091528;28;20036;-68
2022/08/22 11:57:29;;;;;;;9.00;2.55;;;;;;;;;;5091775;28;20118;-67
2022/08/22 12:00:06;;;;;;;10.45;2.38;;;;;;;;;;5100665;28;20343;-83
2022/08/22 12:02:32;;;;;;;7.68;2.22;;;;;;;;;;5095045;28;20102;-67
2022/08/22 12:05:03;;;;;;;12.40;2.40;;;;;;;;;;5103204;28;20301;-68
2022/08/22 12:07:31;;;;;;;7.38;2.38;;;;;;;;;;5112609;28;20116;-67
2022/08/22 12:10:06;;;;;;;13.02;2.55;;;;;;;;;;5099106;28;20044;-68
2022/08/22 12:12:43;;;;;;;10.32;2.30;;;;;;;;;;5093296;28;20064;-68
2022/08/22 12:15:15;;;;;;;13.13;2.38;;;;;;;;;;5094893;28;20061;-68
2022/08/22 12:17:41;;;;;;;13.27;2.10;;;;;;;;;;5102315;28;20096;-68
2022/08/22 12:20:07;;;;;;;11.00;2.55;;;;;;;;;;5103099;28;20054;-68
2022/08/22 12:22:39;;;;;;;10.30;2.40;;;;;;;;;;5094605;28;20040;-68
2022/08/22 12:25:11;;;;;;;8.35;2.50;;;;;;;;;;5100752;28;20083;-68
2022/08/22 12:27:55;;;;;;;8.93;2.10;;;;;;;;;;5103193;28;20040;-68
2022/08/22 12:30:27;;;;;;;10.40;2.67;;;;;;;;;;5097229;28;20040;-67
2022/08/22 12:32:54;;;;;;;11.52;2.70;;;;;;;;;;5099579;28;20051;-67
2022/08/22 12:35:25;;;;;;;9.05;2.75;;;;;;;;;;5099757;28;20392;-67
2022/08/22 12:37:58;;;;;;;11.32;2.47;;;;;;;;;;5095169;28;21711;-67
2022/08/22 12:40:24;;;;;;;;;;;;;;;;;;5086040;28;20588;-67
2022/08/22 12:42:57;;;;;;;11.60;2.92;;;;;;;;;;5097090;28;19927;-67
2022/08/22 12:45:26;;;;;;;9.23;2.53;;;;;;;;;;5081998;28;20040;-68
2022/08/22 12:48:18;;;;;;;11.32;2.20;;;;;;;;;;5090383;28;20815;-67
2022/08/22 12:50:50;;;;;;;10.65;2.78;;;;;;;;;;5085882;28;20047;-67
2022/08/22 12:53:23;;;;;;;8.90;2.22;;;;;;;;;;5090034;28;20047;-67
2022/08/22 12:55:57;;;;;;;9.27;2.40;;;;;;;;;;5095555;28;20553;-67
2022/08/22 12:58:33;;;;;;;11.82;2.70;;;;;;;;;;5103056;28;20096;-67
2022/08/22 13:01:01;;;;;;;8.65;2.13;;;;;;;;;;5095742;28;20486;-67
2022/08/22 13:03:31;;;;;;;9.52;2.47;;;;;;;;;;5087931;28;20119;-67
2022/08/22 13:05:58;;;;;;;9.35;2.70;;;;;;;;;;5091931;28;20039;-67
2022/08/22 13:08:28;;;;;;;12.60;2.70;;;;;;;;;;5073920;28;20042;-67
2022/08/22 13:10:57;;;;;;;10.27;2.40;;;;;;;;;;5075311;28;20077;-67
2022/08/22 13:13:30;;;;;;;12.48;2.97;;;;;;;;;;5078651;28;20047;-68
2022/08/22 13:16:03;;;;;;;11.98;2.60;;;;;;;;;;5078810;28;20490;-67
2022/08/22 13:18:33;;;;;;;10.18;2.33;;;;;;;;;;5083506;28;20047;-68
2022/08/22 13:21:02;;;;;;;9.63;2.30;;;;;;;;;;5087793;28;20044;-68
2022/08/22 13:23:30;;;;;;;7.82;2.33;;;;;;;;;;5081588;28;20072;-67
2022/08/22 13:25:57;;;;;;;8.75;2.33;;;;;;;;;;5086168;28;20126;-68
2022/08/22 13:28:24;;;;;;;10.13;2.75;;;;;;;;;;5091085;28;20106;-67
2022/08/22 13:30:52;;;;;;;8.98;2.30;;;;;;;;;;5082333;28;20119;-68
2022/08/22 13:33:25;;;;;;;8.90;2.90;;;;;;;;;;5078184;28;20051;-68
2022/08/22 13:35:53;;;;;;;8.55;2.80;;;;;;;;;;5080884;28;20042;-67
2022/08/22 13:38:19;;;;;;;10.43;2.53;;;;;;;;;;5081328;28;20401;-68
2022/08/22 13:40:48;;;;;;;11.50;2.70;;;;;;;;;;5085778;28;20115;-68
2022/08/22 13:43:23;;;;;;;8.18;2.58;;;;;;;;;;5083683;28;20047;-68
2022/08/22 13:45:55;;;;;;;12.60;3.53;;;;;;;;;;5082066;28;20495;-68
2022/08/22 13:48:22;;;;;;;10.32;2.80;;;;;;;;;;5085565;28;20032;-67
2022/08/22 13:50:57;;;;;;;11.82;2.25;;;;;;;;;;5090244;28;20057;-67
2022/08/22 13:53:30;;;;;;;10.50;2.42;;;;;;;;;;5086195;28;20136;-68
2022/08/22 13:55:56;;;;;;;;;;;;;;;;;;5089084;28;20036;-68
2022/08/22 13:58:22;;;;;;;12.85;3.03;;;;;;;;;;5086907;28;19924;-68
2022/08/22 14:00:52;;;;;;;8.32;2.03;;;;;;;;;;5084562;28;20051;-68
2022/08/22 14:03:22;;;;;;;7.75;2.65;;;;;;;;;;5085502;28;20047;-68
2022/08/22 14:05:52;;;;;;;9.25;2.47;;;;;;;;;;5084029;28;20084;-68
2022/08/22 14:08:20;;;;;;;10.57;2.60;;;;;;;;;;5085738;28;20043;-67
2022/08/22 14:10:50;;;;;;;9.27;2.65;;;;;;;;;;5083391;28;20051;-67
2022/08/22 14:13:23;;;;;;;14.23;2.22;;;;;;;;;;5088196;28;20041;-68
2022/08/22 14:15:50;;;;;;;7.85;2.33;;;;;;;;;;5088436;28;20056;-68
2022/08/22 14:18:19;;;;;;;9.02;2.50;;;;;;;;;;5091938;28;20048;-68
2022/08/22 14:20:46;;;;;;;9.65;2.17;;;;;;;;;;5091619;28;20055;-68
2022/08/22 14:23:16;;;;;;;7.03;2.10;;;;;;;;;;5088536;28;20547;-68
2022/08/22 14:25:43;;;;;;;6.40;1.83;;;;;;;;;;5093307;28;20047;-67
2022/08/22 14:28:21;;;;;;;10.43;2.10;;;;;;;;;;5087549;28;20058;-68
2022/08/22 14:30:56;;;;;;;8.43;2.25;;;;;;;;;;5086598;28;20486;-67
2022/08/22 14:33:25;;;;;;;8.43;2.17;;;;;;;;;;5105722;27;20039;-67
2022/08/22 14:35:57;;;;;;;10.48;2.70;;;;;;;;;;5091599;28;20051;-68
2022/08/22 14:38:39;;;;;;;14.63;2.95;;;;;;;;;;5091064;28;20100;-68
2022/08/22 14:41:07;;;;;;;9.00;2.40;;;;;;;;;;5088550;28;20115;-67
2022/08/22 14:43:33;;;;;;;7.05;2.42;;;;;;;;;;5093794;28;20036;-68
2022/08/22 14:46:03;;;;;;;9.95;2.33;;;;;;;;;;5091153;28;20185;-67
2022/08/22 14:48:34;;;;;;;12.25;2.65;;;;;;;;;;5085291;28;20483;-68
2022/08/22 14:51:04;;;;;;;10.30;2.90;;;;;;;;;;5088509;28;20081;-67
2022/08/22 14:53:32;;;;;;;8.63;2.75;;;;;;;;;;5086247;28;20039;-69
2022/08/22 14:56:07;;;;;;;13.02;2.72;;;;;;;;;;5092755;28;20139;-67
2022/08/22 14:58:36;;;;;;;8.02;2.00;;;;;;;;;;5095056;28;20467;-67
2022/08/22 15:01:09;;;;;;;10.82;2.75;;;;;;;;;;5090616;28;20085;-68
2022/08/22 15:03:37;;;;;;;12.48;2.40;;;;;;;;;;5089806;28;20052;-67
2022/08/22 15:06:07;;;;;;;10.50;2.88;;;;;;;;;;5089642;28;20087;-67
2022/08/22 15:08:35;;;;;;;13.90;2.95;;;;;;;;;;5086939;28;20076;-67
2022/08/22 15:11:11;;;;;;;10.82;2.47;;;;;;;;;;5082982;28;20044;-67